sensor_id;sensor_type;location;lat;lon;timestamp;pressure;altitude;pressure_sealevel;temperature;humidity
64340;BME280;63709;53.258;-8.814;2023-02-03T00:01:09;102704.59;;;13.96;100.00
64340;BME280;63709;53.258;-8.814;2023-02-03T00:03:34;102703.75;;;13.95;100.00
64340;BME280;63709;53.258;-8.814;2023-02-03T00:06:01;102705.91;;;13.89;100.00
64340;BME280;63709;53.258;-8.814;2023-02-03T00:08:28;102709.41;;;13.91;100.00
64340;BME280;63709;53.258;-8.814;2023-02-03T00:10:55;102711.00;;;13.93;100.00
64340;BME280;63709;53.258;-8.814;2023-02-03T00:13:21;102715.78;;;13.88;100.00
64340;BME280;63709;53.258;-8.814;2023-02-03T00:15:47;102730.50;;;13.97;100.00
64340;BME280;63709;53.258;-8.814;2023-02-03T00:18:13;102732.13;;;13.99;100.00
64340;BME280;63709;53.258;-8.814;2023-02-03T00:20:38;102732.25;;;13.98;100.00
64340;BME280;63709;53.258;-8.814;2023-02-03T00:23:07;102734.72;;;14.01;100.00
64340;BME280;63709;53.258;-8.814;2023-02-03T00:25:33;102732.72;;;14.04;100.00
64340;BME280;63709;53.258;-8.814;2023-02-03T00:27:58;102733.97;;;13.99;100.00
64340;BME280;63709;53.258;-8.814;2023-02-03T00:30:25;102737.06;;;14.07;100.00
64340;BME280;63709;53.258;-8.814;2023-02-03T00:32:52;102735.50;;;14.03;100.00
64340;BME280;63709;53.258;-8.814;2023-02-03T00:35:17;102738.66;;;13.95;100.00
64340;BME280;63709;53.258;-8.814;2023-02-03T00:37:43;102743.41;;;14.06;100.00
64340;BME280;63709;53.258;-8.814;2023-02-03T00:40:09;102745.13;;;14.07;100.00
64340;BME280;63709;53.258;-8.814;2023-02-03T00:42:35;102748.66;;;14.08;100.00
64340;BME280;63709;53.258;-8.814;2023-02-03T00:45:00;102747.81;;;14.07;100.00
64340;BME280;63709;53.258;-8.814;2023-02-03T00:47:26;102756.13;;;14.02;100.00
64340;BME280;63709;53.258;-8.814;2023-02-03T00:49:52;102758.38;;;14.10;100.00
64340;BME280;63709;53.258;-8.814;2023-02-03T00:52:18;102764.69;;;14.09;100.00
64340;BME280;63709;53.258;-8.814;2023-02-03T00:54:43;102761.13;;;14.09;100.00
64340;BME280;63709;53.258;-8.814;2023-02-03T00:57:09;102757.00;;;14.03;100.00
64340;BME280;63709;53.258;-8.814;2023-02-03T00:59:36;102768.00;;;13.98;100.00
64340;BME280;63709;53.258;-8.814;2023-02-03T01:02:02;102766.00;;;14.02;100.00
64340;BME280;63709;53.258;-8.814;2023-02-03T01:04:28;102764.59;;;14.11;100.00
64340;BME280;63709;53.258;-8.814;2023-02-03T01:06:54;102765.41;;;13.97;100.00
64340;BME280;63709;53.258;-8.814;2023-02-03T01:09:23;102765.22;;;14.00;100.00
64340;BME280;63709;53.258;-8.814;2023-02-03T01:11:48;102764.63;;;13.95;100.00
64340;BME280;63709;53.258;-8.814;2023-02-03T01:14:15;102767.91;;;14.00;100.00
64340;BME280;63709;53.258;-8.814;2023-02-03T01:16:40;102768.09;;;13.97;100.00
64340;BME280;63709;53.258;-8.814;2023-02-03T01:19:07;102764.47;;;13.98;100.00
64340;BME280;63709;53.258;-8.814;2023-02-03T01:21:33;102762.63;;;13.98;100.00
64340;BME280;63709;53.258;-8.814;2023-02-03T01:24:00;102768.78;;;14.00;100.00
64340;BME280;63709;53.258;-8.814;2023-02-03T01:26:28;102776.97;;;13.83;100.00
64340;BME280;63709;53.258;-8.814;2023-02-03T01:28:54;102774.31;;;13.97;100.00
64340;BME280;63709;53.258;-8.814;2023-02-03T01:31:22;102768.69;;;13.86;100.00
64340;BME280;63709;53.258;-8.814;2023-02-03T01:33:49;102776.25;;;13.95;100.00
64340;BME280;63709;53.258;-8.814;2023-02-03T01:36:15;102777.09;;;13.96;100.00
64340;BME280;63709;53.258;-8.814;2023-02-03T01:38:43;102774.59;;;13.93;100.00
64340;BME280;63709;53.258;-8.814;2023-02-03T01:43:43;102775.44;;;13.93;100.00
64340;BME280;63709;53.258;-8.814;2023-02-03T01:46:26;102779.19;;;13.91;100.00
64340;BME280;63709;53.258;-8.814;2023-02-03T01:48:53;102765.31;;;13.98;100.00
64340;BME280;63709;53.258;-8.814;2023-02-03T01:51:20;102763.16;;;13.89;100.00
64340;BME280;63709;53.258;-8.814;2023-02-03T01:53:46;102763.09;;;13.91;100.00
64340;BME280;63709;53.258;-8.814;2023-02-03T01:56:12;102762.28;;;13.89;100.00
64340;BME280;63709;53.258;-8.814;2023-02-03T01:58:38;102763.16;;;13.89;100.00
64340;BME280;63709;53.258;-8.814;2023-02-03T02:01:05;102767.25;;;13.80;100.00
64340;BME280;63709;53.258;-8.814;2023-02-03T02:03:49;102775.38;;;13.79;100.00
64340;BME280;63709;53.258;-8.814;2023-02-03T02:06:16;102779.88;;;13.94;100.00
64340;BME280;63709;53.258;-8.814;2023-02-03T02:08:43;102786.56;;;13.87;100.00
64340;BME280;63709;53.258;-8.814;2023-02-03T02:11:10;102787.25;;;13.91;100.00
64340;BME280;63709;53.258;-8.814;2023-02-03T02:13:35;102789.72;;;13.94;100.00
64340;BME280;63709;53.258;-8.814;2023-02-03T02:23:35;102808.53;;;13.94;100.00
64340;BME280;63709;53.258;-8.814;2023-02-03T02:26:15;102805.41;;;13.86;100.00
64340;BME280;63709;53.258;-8.814;2023-02-03T02:29:10;102809.66;;;13.90;100.00
64340;BME280;63709;53.258;-8.814;2023-02-03T02:42:05;102820.66;;;14.01;100.00
64340;BME280;63709;53.258;-8.814;2023-02-03T02:44:34;102821.59;;;14.00;100.00
64340;BME280;63709;53.258;-8.814;2023-02-03T02:47:09;102819.03;;;13.98;100.00
64340;BME280;63709;53.258;-8.814;2023-02-03T02:52:07;102819.72;;;14.02;100.00
64340;BME280;63709;53.258;-8.814;2023-02-03T02:54:36;102816.06;;;14.03;100.00
64340;BME280;63709;53.258;-8.814;2023-02-03T02:57:03;102823.34;;;14.01;100.00
64340;BME280;63709;53.258;-8.814;2023-02-03T02:59:30;102820.84;;;13.98;100.00
64340;BME280;63709;53.258;-8.814;2023-02-03T03:01:56;102822.31;;;14.03;100.00
64340;BME280;63709;53.258;-8.814;2023-02-03T03:04:27;102825.16;;;14.00;100.00
64340;BME280;63709;53.258;-8.814;2023-02-03T03:07:04;102817.97;;;14.01;100.00
64340;BME280;63709;53.258;-8.814;2023-02-03T03:12:09;102817.19;;;13.99;100.00
64340;BME280;63709;53.258;-8.814;2023-02-03T03:14:38;102817.78;;;14.04;100.00
64340;BME280;63709;53.258;-8.814;2023-02-03T03:17:07;102826.81;;;14.03;100.00
64340;BME280;63709;53.258;-8.814;2023-02-03T03:19:35;102827.56;;;14.05;100.00
64340;BME280;63709;53.258;-8.814;2023-02-03T03:22:03;102827.94;;;13.99;100.00
64340;BME280;63709;53.258;-8.814;2023-02-03T03:24:33;102820.91;;;13.96;100.00
64340;BME280;63709;53.258;-8.814;2023-02-03T03:27:04;102830.09;;;13.92;100.00
64340;BME280;63709;53.258;-8.814;2023-02-03T03:29:41;102829.78;;;13.98;100.00
64340;BME280;63709;53.258;-8.814;2023-02-03T03:32:08;102832.19;;;14.03;100.00
64340;BME280;63709;53.258;-8.814;2023-02-03T03:34:34;102827.69;;;14.03;100.00
64340;BME280;63709;53.258;-8.814;2023-02-03T03:42:27;102826.81;;;14.03;100.00
64340;BME280;63709;53.258;-8.814;2023-02-03T03:44:56;102831.16;;;14.06;100.00
64340;BME280;63709;53.258;-8.814;2023-02-03T03:47:25;102828.53;;;14.04;100.00
64340;BME280;63709;53.258;-8.814;2023-02-03T03:49:53;102824.28;;;14.00;100.00
64340;BME280;63709;53.258;-8.814;2023-02-03T03:52:22;102834.06;;;14.01;100.00
64340;BME280;63709;53.258;-8.814;2023-02-03T03:54:49;102834.78;;;14.04;100.00
64340;BME280;63709;53.258;-8.814;2023-02-03T03:57:20;102832.88;;;14.07;100.00
64340;BME280;63709;53.258;-8.814;2023-02-03T03:59:48;102831.91;;;14.08;100.00
64340;BME280;63709;53.258;-8.814;2023-02-03T04:02:15;102826.63;;;14.06;100.00
64340;BME280;63709;53.258;-8.814;2023-02-03T04:04:42;102815.91;;;14.06;100.00
64340;BME280;63709;53.258;-8.814;2023-02-03T04:07:11;102825.56;;;14.09;100.00
64340;BME280;63709;53.258;-8.814;2023-02-03T04:09:37;102824.88;;;14.05;100.00
64340;BME280;63709;53.258;-8.814;2023-02-03T04:12:03;102816.50;;;13.95;100.00
64340;BME280;63709;53.258;-8.814;2023-02-03T04:14:34;102808.97;;;14.02;100.00
64340;BME280;63709;53.258;-8.814;2023-02-03T04:17:00;102812.97;;;13.95;100.00
64340;BME280;63709;53.258;-8.814;2023-02-03T04:19:26;102808.09;;;14.01;100.00
64340;BME280;63709;53.258;-8.814;2023-02-03T04:21:51;102818.16;;;13.98;100.00
64340;BME280;63709;53.258;-8.814;2023-02-03T04:24:18;102815.72;;;13.93;100.00
64340;BME280;63709;53.258;-8.814;2023-02-03T04:26:43;102818.06;;;13.99;100.00
64340;BME280;63709;53.258;-8.814;2023-02-03T04:29:11;102810.44;;;14.08;100.00
64340;BME280;63709;53.258;-8.814;2023-02-03T04:31:37;102832.69;;;14.10;100.00
64340;BME280;63709;53.258;-8.814;2023-02-03T04:34:03;102824.28;;;14.00;100.00
64340;BME280;63709;53.258;-8.814;2023-02-03T04:36:29;102827.34;;;14.10;100.00
64340;BME280;63709;53.258;-8.814;2023-02-03T04:38:54;102839.22;;;14.06;100.00
64340;BME280;63709;53.258;-8.814;2023-02-03T04:41:21;102829.31;;;14.06;100.00
64340;BME280;63709;53.258;-8.814;2023-02-03T04:43:46;102833.19;;;14.16;100.00
64340;BME280;63709;53.258;-8.814;2023-02-03T04:46:12;102839.78;;;14.11;100.00
64340;BME280;63709;53.258;-8.814;2023-02-03T04:48:38;102830.94;;;14.09;100.00
64340;BME280;63709;53.258;-8.814;2023-02-03T04:51:05;102839.78;;;14.11;100.00
64340;BME280;63709;53.258;-8.814;2023-02-03T04:53:31;102839.22;;;14.06;100.00
64340;BME280;63709;53.258;-8.814;2023-02-03T04:55:57;102839.78;;;14.11;100.00
64340;BME280;63709;53.258;-8.814;2023-02-03T04:58:23;102831.47;;;14.15;100.00
64340;BME280;63709;53.258;-8.814;2023-02-03T05:00:48;102837.47;;;14.20;100.00
64340;BME280;63709;53.258;-8.814;2023-02-03T05:03:15;102835.00;;;14.16;100.00
64340;BME280;63709;53.258;-8.814;2023-02-03T05:05:40;102835.81;;;14.18;100.00
64340;BME280;63709;53.258;-8.814;2023-02-03T05:08:06;102830.72;;;14.13;100.00
64340;BME280;63709;53.258;-8.814;2023-02-03T05:10:31;102838.84;;;14.12;100.00
64340;BME280;63709;53.258;-8.814;2023-02-03T05:12:57;102837.63;;;14.17;100.00
64340;BME280;63709;53.258;-8.814;2023-02-03T05:15:23;102833.84;;;14.06;100.00
64340;BME280;63709;53.258;-8.814;2023-02-03T05:17:53;102827.34;;;14.10;100.00
64340;BME280;63709;53.258;-8.814;2023-02-03T05:20:21;102832.19;;;14.03;100.00
64340;BME280;63709;53.258;-8.814;2023-02-03T05:22:46;102825.00;;;14.03;100.00
64340;BME280;63709;53.258;-8.814;2023-02-03T05:25:13;102821.44;;;14.03;100.00
64340;BME280;63709;53.258;-8.814;2023-02-03T05:27:39;102822.31;;;14.03;100.00
64340;BME280;63709;53.258;-8.814;2023-02-03T05:30:05;102826.88;;;14.01;100.00
64340;BME280;63709;53.258;-8.814;2023-02-03T05:32:32;102814.16;;;14.05;100.00
64340;BME280;63709;53.258;-8.814;2023-02-03T05:34:57;102823.72;;;13.95;100.00
64340;BME280;63709;53.258;-8.814;2023-02-03T05:37:23;102812.97;;;13.95;100.00
64340;BME280;63709;53.258;-8.814;2023-02-03T05:39:48;102820.91;;;13.96;100.00
64340;BME280;63709;53.258;-8.814;2023-02-03T05:42:13;102820.75;;;13.99;100.00
64340;BME280;63709;53.258;-8.814;2023-02-03T05:44:39;102824.41;;;13.98;100.00
64340;BME280;63709;53.258;-8.814;2023-02-03T05:47:07;102822.31;;;13.88;100.00
64340;BME280;63709;53.258;-8.814;2023-02-03T05:49:33;102827.16;;;13.97;100.00
64340;BME280;63709;53.258;-8.814;2023-02-03T05:51:59;102820.59;;;14.02;100.00
64340;BME280;63709;53.258;-8.814;2023-02-03T05:54:24;102821.59;;;14.00;100.00
64340;BME280;63709;53.258;-8.814;2023-02-03T05:56:50;102827.69;;;14.03;100.00
64340;BME280;63709;53.258;-8.814;2023-02-03T05:59:15;102826.47;;;13.93;100.00
64340;BME280;63709;53.258;-8.814;2023-02-03T06:01:41;102828.13;;;13.96;100.00
64340;BME280;63709;53.258;-8.814;2023-02-03T06:04:07;102825.59;;;13.93;100.00
64340;BME280;63709;53.258;-8.814;2023-02-03T06:06:32;102829.78;;;13.98;100.00
64340;BME280;63709;53.258;-8.814;2023-02-03T06:09:03;102825.59;;;13.93;100.00
64340;BME280;63709;53.258;-8.814;2023-02-03T06:11:29;102827.69;;;13.88;100.00
64340;BME280;63709;53.258;-8.814;2023-02-03T06:13:57;102826.47;;;13.93;100.00
64340;BME280;63709;53.258;-8.814;2023-02-03T06:16:27;102833.66;;;13.93;100.00
64340;BME280;63709;53.258;-8.814;2023-02-03T06:18:53;102831.06;;;13.91;100.00
64340;BME280;63709;53.258;-8.814;2023-02-03T06:21:20;102831.75;;;13.95;100.00
64340;BME280;63709;53.258;-8.814;2023-02-03T06:23:46;102833.47;;;13.96;100.00
64340;BME280;63709;53.258;-8.814;2023-02-03T06:26:12;102829.06;;;13.95;100.00
64340;BME280;63709;53.258;-8.814;2023-02-03T06:28:37;102836.34;;;13.93;100.00
64340;BME280;63709;53.258;-8.814;2023-02-03T06:31:03;102829.59;;;13.86;100.00
64340;BME280;63709;53.258;-8.814;2023-02-03T06:33:34;102833.91;;;13.88;100.00
64340;BME280;63709;53.258;-8.814;2023-02-03T06:35:59;102834.25;;;13.82;100.00
64340;BME280;63709;53.258;-8.814;2023-02-03T06:38:26;102844.81;;;13.85;100.00
64340;BME280;63709;53.258;-8.814;2023-02-03T06:40:52;102849.50;;;13.82;100.00
64340;BME280;63709;53.258;-8.814;2023-02-03T06:43:17;102841.78;;;13.75;100.00
64340;BME280;63709;53.258;-8.814;2023-02-03T06:45:48;102856.16;;;13.74;100.00
64340;BME280;63709;53.258;-8.814;2023-02-03T06:48:14;102859.72;;;13.75;100.00
64340;BME280;63709;53.258;-8.814;2023-02-03T06:50:40;102858.25;;;13.69;100.00
64340;BME280;63709;53.258;-8.814;2023-02-03T06:53:06;102861.88;;;13.68;100.00
64340;BME280;63709;53.258;-8.814;2023-02-03T06:55:32;102857.44;;;13.67;100.00
64340;BME280;63709;53.258;-8.814;2023-02-03T06:57:57;102855.91;;;13.63;100.00
64340;BME280;63709;53.258;-8.814;2023-02-03T07:00:23;102854.25;;;13.61;100.00
64340;BME280;63709;53.258;-8.814;2023-02-03T07:02:55;102854.50;;;13.56;100.00
64340;BME280;63709;53.258;-8.814;2023-02-03T07:05:24;102860.56;;;13.60;100.00
64340;BME280;63709;53.258;-8.814;2023-02-03T07:07:50;102866.97;;;13.57;100.00
64340;BME280;63709;53.258;-8.814;2023-02-03T07:10:21;102870.75;;;13.53;100.00
64340;BME280;63709;53.258;-8.814;2023-02-03T07:12:46;102877.94;;;13.52;100.00
64340;BME280;63709;53.258;-8.814;2023-02-03T07:15:12;102879.06;;;13.48;100.00
64340;BME280;63709;53.258;-8.814;2023-02-03T07:17:48;102880.72;;;13.51;100.00
64340;BME280;63709;53.258;-8.814;2023-02-03T07:20:18;102883.47;;;13.49;100.00
64340;BME280;63709;53.258;-8.814;2023-02-03T07:22:50;102881.34;;;13.56;100.00
64340;BME280;63709;53.258;-8.814;2023-02-03T07:25:15;102884.66;;;13.61;100.00
64340;BME280;63709;53.258;-8.814;2023-02-03T07:27:41;102888.25;;;13.60;100.00
64340;BME280;63709;53.258;-8.814;2023-02-03T07:30:06;102898.84;;;13.63;100.00
64340;BME280;63709;53.258;-8.814;2023-02-03T07:32:33;102900.84;;;13.75;100.00
64340;BME280;63709;53.258;-8.814;2023-02-03T07:34:59;102906.13;;;13.77;100.00
64340;BME280;63709;53.258;-8.814;2023-02-03T07:37:25;102905.88;;;13.82;100.00
64340;BME280;63709;53.258;-8.814;2023-02-03T07:39:52;102905.72;;;13.85;100.00
64340;BME280;63709;53.258;-8.814;2023-02-03T07:42:17;102895.94;;;13.84;100.00
64340;BME280;63709;53.258;-8.814;2023-02-03T07:44:44;102900.19;;;13.88;100.00
64340;BME280;63709;53.258;-8.814;2023-02-03T07:47:10;102900.94;;;13.90;100.00
64340;BME280;63709;53.258;-8.814;2023-02-03T07:49:37;102899.38;;;13.86;100.00
64340;BME280;63709;53.258;-8.814;2023-02-03T07:52:02;102902.50;;;13.94;100.00
64340;BME280;63709;53.258;-8.814;2023-02-03T07:54:28;102914.91;;;13.96;100.00
64340;BME280;63709;53.258;-8.814;2023-02-03T07:56:54;102917.16;;;14.04;100.00
64340;BME280;63709;53.258;-8.814;2023-02-03T07:59:20;102915.59;;;14.00;100.00
64340;BME280;63709;53.258;-8.814;2023-02-03T08:01:48;102921.75;;;14.02;100.00
64340;BME280;63709;53.258;-8.814;2023-02-03T08:04:14;102915.34;;;14.04;100.00
64340;BME280;63709;53.258;-8.814;2023-02-03T08:06:41;102915.84;;;13.95;100.00
64340;BME280;63709;53.258;-8.814;2023-02-03T08:09:07;102925.91;;;14.08;100.00
64340;BME280;63709;53.258;-8.814;2023-02-03T08:11:32;102922.94;;;14.12;100.00
64340;BME280;63709;53.258;-8.814;2023-02-03T08:14:00;102926.44;;;14.14;100.00
64340;BME280;63709;53.258;-8.814;2023-02-03T08:16:25;102922.03;;;14.13;100.00
64340;BME280;63709;53.258;-8.814;2023-02-03T08:18:53;102929.88;;;14.16;100.00
64340;BME280;63709;53.258;-8.814;2023-02-03T08:21:18;102931.28;;;14.08;100.00
64340;BME280;63709;53.258;-8.814;2023-02-03T08:23:46;102942.72;;;14.11;100.00
64340;BME280;63709;53.258;-8.814;2023-02-03T08:26:12;102947.59;;;14.20;100.00
64340;BME280;63709;53.258;-8.814;2023-02-03T08:28:40;102952.97;;;14.20;100.00
64340;BME280;63709;53.258;-8.814;2023-02-03T08:31:09;102950.28;;;14.20;100.00
64340;BME280;63709;53.258;-8.814;2023-02-03T08:33:36;102949.31;;;14.21;100.00
64340;BME280;63709;53.258;-8.814;2023-02-03T08:36:01;102959.19;;;14.21;100.00
64340;BME280;63709;53.258;-8.814;2023-02-03T08:38:27;102954.53;;;14.24;100.00
64340;BME280;63709;53.258;-8.814;2023-02-03T08:40:53;102956.09;;;14.28;100.00
64340;BME280;63709;53.258;-8.814;2023-02-03T08:43:19;102958.13;;;14.23;100.00
64340;BME280;63709;53.258;-8.814;2023-02-03T08:45:47;102961.19;;;14.17;100.00
64340;BME280;63709;53.258;-8.814;2023-02-03T08:48:14;102962.66;;;14.23;100.00
64340;BME280;63709;53.258;-8.814;2023-02-03T08:50:40;102960.22;;;14.18;100.00
64340;BME280;63709;53.258;-8.814;2023-02-03T08:53:17;102972.38;;;14.25;100.00
64340;BME280;63709;53.258;-8.814;2023-02-03T08:55:43;102968.72;;;14.26;100.00
64340;BME280;63709;53.258;-8.814;2023-02-03T08:58:11;102971.06;;;14.33;100.00
64340;BME280;63709;53.258;-8.814;2023-02-03T09:00:46;102971.25;;;14.29;100.00
64340;BME280;63709;53.258;-8.814;2023-02-03T09:03:20;102981.19;;;14.27;100.00
64340;BME280;63709;53.258;-8.814;2023-02-03T09:05:48;102986.31;;;14.32;100.00
64340;BME280;63709;53.258;-8.814;2023-02-03T09:08:15;102982.41;;;14.38;100.00
64340;BME280;63709;53.258;-8.814;2023-02-03T09:10:40;102979.66;;;14.39;100.00
64340;BME280;63709;53.258;-8.814;2023-02-03T09:13:13;102991.97;;;14.43;100.00
64340;BME280;63709;53.258;-8.814;2023-02-03T09:15:39;102998.38;;;14.41;100.00
64340;BME280;63709;53.258;-8.814;2023-02-03T09:18:07;102998.47;;;14.39;100.00
64340;BME280;63709;53.258;-8.814;2023-02-03T09:20:32;102998.81;;;14.33;100.00
64340;BME280;63709;53.258;-8.814;2023-02-03T09:22:58;103003.84;;;14.39;100.00
64340;BME280;63709;53.258;-8.814;2023-02-03T09:25:26;103004.28;;;14.47;100.00
64340;BME280;63709;53.258;-8.814;2023-02-03T09:27:52;103001.84;;;14.43;100.00
64340;BME280;63709;53.258;-8.814;2023-02-03T09:30:18;102997.25;;;14.45;100.00
64340;BME280;63709;53.258;-8.814;2023-02-03T09:32:43;103006.25;;;14.44;100.00
64340;BME280;63709;53.258;-8.814;2023-02-03T09:35:14;103003.31;;;14.48;100.00
64340;BME280;63709;53.258;-8.814;2023-02-03T09:37:40;102999.94;;;14.45;100.00
64340;BME280;63709;53.258;-8.814;2023-02-03T09:40:06;102999.75;;;14.48;100.00
64340;BME280;63709;53.258;-8.814;2023-02-03T09:45:27;102997.25;;;14.61;100.00
64340;BME280;63709;53.258;-8.814;2023-02-03T09:47:54;102998.91;;;14.63;100.00
64340;BME280;63709;53.258;-8.814;2023-02-03T09:50:24;103002.03;;;14.71;100.00
64340;BME280;63709;53.258;-8.814;2023-02-03T09:52:50;103012.09;;;14.68;100.00
64340;BME280;63709;53.258;-8.814;2023-02-03T09:55:24;103001.69;;;14.77;100.00
64340;BME280;63709;53.258;-8.814;2023-02-03T09:57:51;103004.38;;;14.77;100.00
64340;BME280;63709;53.258;-8.814;2023-02-03T10:00:26;103011.66;;;14.75;100.00
64340;BME280;63709;53.258;-8.814;2023-02-03T10:02:58;103006.09;;;14.79;100.00
64340;BME280;63709;53.258;-8.814;2023-02-03T10:13:48;103018.06;;;14.89;100.00
64340;BME280;63709;53.258;-8.814;2023-02-03T10:16:25;103015.53;;;14.86;100.00
64340;BME280;63709;53.258;-8.814;2023-02-03T10:18:56;103009.19;;;14.87;100.00
64340;BME280;63709;53.258;-8.814;2023-02-03T10:21:36;103011.88;;;14.87;100.00
64340;BME280;63709;53.258;-8.814;2023-02-03T10:24:04;103013.38;;;14.92;100.00
64340;BME280;63709;53.258;-8.814;2023-02-03T10:26:30;103008.69;;;14.96;100.00
64340;BME280;63709;53.258;-8.814;2023-02-03T10:28:58;103013.66;;;14.88;100.00
64340;BME280;63709;53.258;-8.814;2023-02-03T10:31:31;103019.44;;;14.96;100.00
64340;BME280;63709;53.258;-8.814;2023-02-03T10:33:59;103017.72;;;14.95;100.00
64340;BME280;63709;53.258;-8.814;2023-02-03T10:41:38;103021.53;;;14.91;100.00
64340;BME280;63709;53.258;-8.814;2023-02-03T10:44:04;103017.78;;;14.93;100.00
64340;BME280;63709;53.258;-8.814;2023-02-03T10:46:35;103029.22;;;14.97;100.00
64340;BME280;63709;53.258;-8.814;2023-02-03T10:49:03;103023.44;;;14.89;100.00
64340;BME280;63709;53.258;-8.814;2023-02-03T10:51:33;103030.97;;;14.98;100.00
64340;BME280;63709;53.258;-8.814;2023-02-03T10:54:01;103033.41;;;15.03;100.00
64340;BME280;63709;53.258;-8.814;2023-02-03T10:56:32;103028.72;;;15.06;100.00
64340;BME280;63709;53.258;-8.814;2023-02-03T10:59:00;103022.00;;;15.13;100.00
64340;BME280;63709;53.258;-8.814;2023-02-03T11:01:28;103032.91;;;15.26;100.00
64340;BME280;63709;53.258;-8.814;2023-02-03T11:04:03;103035.41;;;15.29;100.00
64340;BME280;63709;53.258;-8.814;2023-02-03T11:06:30;103039.06;;;15.28;100.00
64340;BME280;63709;53.258;-8.814;2023-02-03T11:08:57;103044.81;;;15.22;100.00
64340;BME280;63709;53.258;-8.814;2023-02-03T11:11:24;103051.28;;;15.34;100.00
64340;BME280;63709;53.258;-8.814;2023-02-03T11:13:54;103053.63;;;15.40;100.00
64340;BME280;63709;53.258;-8.814;2023-02-03T11:16:20;103055.91;;;15.32;100.00
64340;BME280;63709;53.258;-8.814;2023-02-03T11:19:02;103066.00;;;15.42;100.00
64340;BME280;63709;53.258;-8.814;2023-02-03T11:21:48;103065.19;;;15.56;100.00
64340;BME280;63709;53.258;-8.814;2023-02-03T11:26:48;103069.50;;;15.75;100.00
64340;BME280;63709;53.258;-8.814;2023-02-03T11:29:16;103076.72;;;15.74;100.00
64340;BME280;63709;53.258;-8.814;2023-02-03T11:31:45;103075.00;;;15.73;100.00
64340;BME280;63709;53.258;-8.814;2023-02-03T11:34:16;103079.41;;;15.74;100.00
64340;BME280;63709;53.258;-8.814;2023-02-03T11:36:43;103086.31;;;15.48;100.00
64340;BME280;63709;53.258;-8.814;2023-02-03T11:39:10;103090.00;;;15.47;100.00
64340;BME280;63709;53.258;-8.814;2023-02-03T11:41:39;103086.69;;;15.42;100.00
64340;BME280;63709;53.258;-8.814;2023-02-03T11:44:15;103086.97;;;15.37;100.00
64340;BME280;63709;53.258;-8.814;2023-02-03T11:46:42;103087.31;;;15.31;100.00
64340;BME280;63709;53.258;-8.814;2023-02-03T11:49:12;103093.59;;;15.16;100.00
64340;BME280;63709;53.258;-8.814;2023-02-03T11:51:50;103091.44;;;15.07;100.00
64340;BME280;63709;53.258;-8.814;2023-02-03T12:05:16;103091.53;;;14.73;100.00
64340;BME280;63709;53.258;-8.814;2023-02-03T12:10:46;103090.56;;;14.90;100.00
64340;BME280;63709;53.258;-8.814;2023-02-03T12:16:24;103095.34;;;15.01;100.00
64340;BME280;63709;53.258;-8.814;2023-02-03T12:26:27;103096.97;;;15.19;100.00
64340;BME280;63709;53.258;-8.814;2023-02-03T12:36:48;103091.34;;;15.54;100.00
64340;BME280;63709;53.258;-8.814;2023-02-03T12:42:20;103105.00;;;15.81;100.00
64340;BME280;63709;53.258;-8.814;2023-02-03T12:44:56;103106.66;;;15.84;100.00
64340;BME280;63709;53.258;-8.814;2023-02-03T12:49:52;103097.53;;;16.01;100.00
64340;BME280;63709;53.258;-8.814;2023-02-03T12:52:41;103107.53;;;16.13;100.00
64340;BME280;63709;53.258;-8.814;2023-02-03T12:55:07;103098.22;;;16.18;100.00
64340;BME280;63709;53.258;-8.814;2023-02-03T12:57:45;103098.22;;;16.18;100.00
64340;BME280;63709;53.258;-8.814;2023-02-03T13:00:16;103103.81;;;16.15;100.00
64340;BME280;63709;53.258;-8.814;2023-02-03T13:05:18;103105.44;;;16.18;100.00
64340;BME280;63709;53.258;-8.814;2023-02-03T13:07:49;103109.69;;;16.36;100.00
64340;BME280;63709;53.258;-8.814;2023-02-03T13:13:01;103105.47;;;16.32;100.00
64340;BME280;63709;53.258;-8.814;2023-02-03T13:15:49;103109.97;;;16.46;100.00
64340;BME280;63709;53.258;-8.814;2023-02-03T13:20:45;103117.84;;;16.49;100.00
64340;BME280;63709;53.258;-8.814;2023-02-03T13:23:12;103109.59;;;16.81;100.00
64340;BME280;63709;53.258;-8.814;2023-02-03T13:31:02;103110.47;;;17.08;100.00
64340;BME280;63709;53.258;-8.814;2023-02-03T13:36:06;103115.56;;;17.13;100.00
64340;BME280;63709;53.258;-8.814;2023-02-03T13:41:50;103106.91;;;17.08;100.00
64340;BME280;63709;53.258;-8.814;2023-02-03T13:43:58;103118.91;;;16.89;100.00
64340;BME280;63709;53.258;-8.814;2023-02-03T13:46:31;103111.88;;;16.87;100.00
64340;BME280;63709;53.258;-8.814;2023-02-03T13:48:59;103123.53;;;16.73;100.00
64340;BME280;63709;53.258;-8.814;2023-02-03T13:51:26;103105.59;;;16.72;100.00
64340;BME280;63709;53.258;-8.814;2023-02-03T13:53:59;103110.06;;;16.59;100.00
64340;BME280;63709;53.258;-8.814;2023-02-03T13:56:26;103122.94;;;16.54;100.00
64340;BME280;63709;53.258;-8.814;2023-02-03T14:01:34;103120.06;;;16.42;100.00
64340;BME280;63709;53.258;-8.814;2023-02-03T14:04:01;103120.75;;;16.46;100.00
64340;BME280;63709;53.258;-8.814;2023-02-03T14:09:02;103114.22;;;16.50;100.00
64340;BME280;63709;53.258;-8.814;2023-02-03T14:11:37;103102.84;;;16.59;100.00
64340;BME280;63709;53.258;-8.814;2023-02-03T14:16:39;103109.28;;;16.42;100.00
64340;BME280;63709;53.258;-8.814;2023-02-03T14:19:12;103099.75;;;16.23;100.00
64340;BME280;63709;53.258;-8.814;2023-02-03T14:21:47;103097.25;;;16.05;100.00
64340;BME280;63709;53.258;-8.814;2023-02-03T14:24:13;103109.63;;;15.93;100.00
64340;BME280;63709;53.258;-8.814;2023-02-03T14:26:41;103103.06;;;15.69;100.00
64340;BME280;63709;53.258;-8.814;2023-02-03T14:29:10;103099.59;;;15.67;100.00